createdAt,value
2019-01-26T00:00:35.507Z,100228.34
2019-01-26T00:01:36.360Z,100221.72
2019-01-26T00:02:37.214Z,100218.84
2019-01-26T00:03:38.074Z,100218.34
2019-01-26T00:04:38.945Z,100224.02
2019-01-26T00:05:39.849Z,100221.16
2019-01-26T00:06:40.702Z,100221.36
2019-01-26T00:07:41.551Z,100224.20
2019-01-26T00:08:42.411Z,100222.70
2019-01-26T00:09:43.275Z,100221.45
2019-01-26T00:10:44.159Z,100220.56
2019-01-26T00:11:45.027Z,100219.70
2019-01-26T00:12:45.886Z,100218.03
2019-01-26T00:13:46.738Z,100215.48
2019-01-26T00:14:47.599Z,100213.65
2019-01-26T00:15:48.497Z,100212.17
2019-01-26T00:16:49.351Z,100216.03
2019-01-26T00:17:50.205Z,100208.50
2019-01-26T00:18:51.059Z,100210.17
2019-01-26T00:19:51.914Z,100203.86
2019-01-26T00:20:52.813Z,100205.64
2019-01-26T00:21:53.677Z,100207.30
2019-01-26T00:22:54.540Z,100203.68
2019-01-26T00:23:55.387Z,100207.97
2019-01-26T00:24:56.248Z,100201.99
2019-01-26T00:25:57.144Z,100202.69
2019-01-26T00:26:58.004Z,100206.66
2019-01-26T00:27:58.858Z,100204.64
2019-01-26T00:28:59.715Z,100206.11
2019-01-26T00:30:00.766Z,100201.56
2019-01-26T00:31:01.814Z,100207.00
2019-01-26T00:32:02.763Z,100197.67
2019-01-26T00:33:03.616Z,100192.77
2019-01-26T00:34:04.496Z,100191.98
2019-01-26T00:35:05.339Z,100193.01
2019-01-26T00:36:06.243Z,100200.67
2019-01-26T00:37:07.100Z,100194.31
2019-01-26T00:38:07.955Z,100199.09
2019-01-26T00:39:08.810Z,100193.41
2019-01-26T00:40:10.769Z,100193.19
2019-01-26T00:41:11.656Z,100197.83
2019-01-26T00:42:12.520Z,100198.23
2019-01-26T00:43:13.382Z,100197.91
2019-01-26T00:44:14.230Z,100195.02
2019-01-26T00:45:15.185Z,100193.50
2019-01-26T00:46:16.089Z,100193.30
2019-01-26T00:47:16.953Z,100198.00
2019-01-26T00:48:17.820Z,100193.61
2019-01-26T00:49:18.681Z,100189.75
2019-01-26T00:50:19.547Z,100188.06
2019-01-26T00:51:20.437Z,100185.82
2019-01-26T00:52:21.297Z,100189.73
2019-01-26T00:53:22.149Z,100184.21
2019-01-26T00:54:23.054Z,100190.23
2019-01-26T00:55:24.029Z,100188.61
2019-01-26T00:56:24.913Z,100181.17
2019-01-26T00:57:25.781Z,100181.66
2019-01-26T00:58:26.637Z,100179.63
2019-01-26T00:59:27.617Z,100177.16
2019-01-26T01:00:28.475Z,100166.67
2019-01-26T01:01:31.985Z,100173.81
2019-01-26T01:02:32.843Z,100171.83
2019-01-26T01:03:33.728Z,100170.75
2019-01-26T01:04:34.659Z,100168.97
2019-01-26T01:05:35.516Z,100172.98
2019-01-26T01:06:36.373Z,100172.93
2019-01-26T01:07:37.229Z,100171.30
2019-01-26T01:08:38.081Z,100178.14
2019-01-26T01:09:39.007Z,100177.64
2019-01-26T01:10:41.420Z,100174.92
2019-01-26T01:11:42.286Z,100177.39
2019-01-26T01:12:43.134Z,100179.41
2019-01-26T01:13:43.991Z,100178.34
2019-01-26T01:14:44.883Z,100182.49
2019-01-26T01:15:45.734Z,100174.97
2019-01-26T01:16:46.589Z,100174.34
2019-01-26T01:17:47.451Z,100178.97
2019-01-26T01:18:48.336Z,100183.97
2019-01-26T01:19:49.182Z,100178.06
2019-01-26T01:20:50.049Z,100177.23
2019-01-26T01:21:50.926Z,100181.24
2019-01-26T01:22:51.853Z,100176.91
2019-01-26T01:23:52.707Z,100181.17
2019-01-26T01:24:53.598Z,100175.13
2019-01-26T01:25:54.445Z,100174.96
2019-01-26T01:26:55.302Z,100168.80
2019-01-26T01:27:56.160Z,100169.66
2019-01-26T01:28:57.024Z,100174.62
2019-01-26T01:29:57.894Z,100169.86
2019-01-26T01:30:58.751Z,100171.66
2019-01-26T01:31:59.610Z,100171.29
2019-01-26T01:33:00.510Z,100175.44
2019-01-26T01:34:01.512Z,100170.44
2019-01-26T01:35:03.170Z,100171.42
2019-01-26T01:36:04.023Z,100168.69
2019-01-26T01:37:04.890Z,100160.67
2019-01-26T01:38:05.774Z,100164.14
2019-01-26T01:39:06.636Z,100169.75
2019-01-26T01:40:09.500Z,100172.14
2019-01-26T01:41:10.364Z,100166.72
2019-01-26T01:42:11.206Z,100165.14
2019-01-26T01:43:12.100Z,100168.08
2019-01-26T01:44:12.960Z,100166.56
2019-01-26T01:45:19.692Z,100165.56
2019-01-26T01:46:20.552Z,100155.87
2019-01-26T01:47:21.406Z,100152.62
2019-01-26T01:48:22.300Z,100151.28
2019-01-26T01:49:23.160Z,100149.17
2019-01-26T01:50:24.018Z,100147.28
2019-01-26T01:51:24.874Z,100147.63
2019-01-26T01:52:25.731Z,100151.38
2019-01-26T01:53:26.608Z,100152.70
2019-01-26T01:54:27.458Z,100145.25
2019-01-26T01:55:28.338Z,100143.11
2019-01-26T01:56:29.192Z,100148.67
2019-01-26T01:57:30.042Z,100147.88
2019-01-26T01:58:30.949Z,100148.13
2019-01-26T01:59:31.960Z,100152.89
2019-01-26T02:00:32.916Z,100151.31
2019-01-26T02:01:33.790Z,100146.64
2019-01-26T02:02:34.640Z,100145.59
2019-01-26T02:03:35.547Z,100139.84
2019-01-26T02:04:36.430Z,100136.52
2019-01-26T02:05:37.306Z,100136.31
2019-01-26T02:06:38.167Z,100144.59
2019-01-26T02:07:39.045Z,100133.72
2019-01-26T02:08:39.943Z,100125.77
2019-01-26T02:09:44.311Z,100130.81
2019-01-26T02:10:45.124Z,100131.73
2019-01-26T02:11:45.989Z,100131.48
2019-01-26T02:12:46.843Z,100131.55
2019-01-26T02:13:47.727Z,100132.94
2019-01-26T02:14:48.593Z,100137.20
2019-01-26T02:15:49.440Z,100132.44
2019-01-26T02:16:50.417Z,100132.46
2019-01-26T02:17:51.270Z,100126.55
2019-01-26T02:18:52.165Z,100126.77
2019-01-26T02:19:53.023Z,100124.09
2019-01-26T02:20:53.879Z,100129.92
2019-01-26T02:21:54.734Z,100129.16
2019-01-26T02:22:55.630Z,100128.23
2019-01-26T02:23:56.520Z,100122.30
2019-01-26T02:24:57.390Z,100120.31
2019-01-26T02:25:58.309Z,100126.05
2019-01-26T02:26:59.217Z,100119.52
2019-01-26T02:28:00.075Z,100116.75
2019-01-26T02:29:00.969Z,100120.05
2019-01-26T02:30:01.935Z,100116.27
2019-01-26T02:31:02.782Z,100116.31
2019-01-26T02:32:03.662Z,100109.22
2019-01-26T02:33:04.560Z,100112.91
2019-01-26T02:34:05.441Z,100108.50
2019-01-26T02:35:06.325Z,100112.51
2019-01-26T02:36:07.192Z,100108.22
2019-01-26T02:37:08.054Z,100107.15
2019-01-26T02:38:08.942Z,100107.77
2019-01-26T02:39:09.811Z,100110.05
2019-01-26T02:40:12.963Z,100108.73
2019-01-26T02:41:13.814Z,100105.59
2019-01-26T02:42:14.672Z,100098.91
2019-01-26T02:43:15.569Z,100096.59
2019-01-26T02:44:16.421Z,100099.56
2019-01-26T02:45:17.271Z,100098.50
2019-01-26T02:46:18.122Z,100091.52
2019-01-26T02:47:19.086Z,100097.58
2019-01-26T02:48:19.980Z,100087.41
2019-01-26T02:49:20.834Z,100095.75
2019-01-26T02:50:21.697Z,100098.40
2019-01-26T02:51:22.542Z,100094.85
2019-01-26T02:52:23.422Z,100092.61
2019-01-26T02:53:24.301Z,100089.92
2019-01-26T02:54:25.172Z,100089.47
2019-01-26T02:55:26.021Z,100091.37
2019-01-26T02:56:26.879Z,100091.13
2019-01-26T02:57:27.735Z,100083.95
2019-01-26T02:58:28.612Z,100095.95
2019-01-26T02:59:29.476Z,100086.42
2019-01-26T03:00:30.325Z,100088.80
2019-01-26T03:01:31.183Z,100085.33
2019-01-26T03:02:32.034Z,100091.42
2019-01-26T03:03:33.028Z,100089.19
2019-01-26T03:04:33.901Z,100086.31
2019-01-26T03:05:34.758Z,100084.60
2019-01-26T03:06:35.629Z,100085.53
2019-01-26T03:07:36.479Z,100092.12
2019-01-26T03:08:37.342Z,100091.62
2019-01-26T03:09:38.196Z,100090.92
2019-01-26T03:10:39.076Z,100090.44
2019-01-26T03:11:39.915Z,100090.52
2019-01-26T03:12:40.777Z,100082.23
2019-01-26T03:13:41.668Z,100091.61
2019-01-26T03:14:42.526Z,100088.08
2019-01-26T03:15:43.411Z,100085.66
2019-01-26T03:16:44.274Z,100084.67
2019-01-26T03:17:45.127Z,100085.28
2019-01-26T03:18:46.007Z,100083.96
2019-01-26T03:19:46.859Z,100086.80
2019-01-26T03:20:47.709Z,100077.95
2019-01-26T03:21:48.555Z,100082.58
2019-01-26T03:22:49.437Z,100079.30
2019-01-26T03:23:50.498Z,100083.08
2019-01-26T03:24:51.354Z,100078.80
2019-01-26T03:25:52.198Z,100079.16
2019-01-26T03:26:53.056Z,100077.27
2019-01-26T03:27:53.913Z,100081.28
2019-01-26T03:28:54.809Z,100078.14
2019-01-26T03:29:55.669Z,100074.12
2019-01-26T03:30:56.538Z,100079.56
2019-01-26T03:31:57.388Z,100071.13
2019-01-26T03:32:58.259Z,100070.02
2019-01-26T03:33:59.262Z,100065.19
2019-01-26T03:35:00.326Z,100070.57
2019-01-26T03:36:01.301Z,100067.31
2019-01-26T03:37:02.299Z,100065.48
2019-01-26T03:38:03.206Z,100067.25
2019-01-26T03:39:05.887Z,100062.30
2019-01-26T03:40:10.330Z,100067.55
2019-01-26T03:41:11.189Z,100061.77
2019-01-26T03:42:12.072Z,100059.90
2019-01-26T03:43:13.002Z,100056.98
2019-01-26T03:44:13.859Z,100054.68
2019-01-26T03:45:15.415Z,100051.55
2019-01-26T03:46:16.267Z,100048.69
2019-01-26T03:47:19.207Z,100053.77
2019-01-26T03:48:20.097Z,100052.31
2019-01-26T03:49:20.969Z,100046.30
2019-01-26T03:50:21.819Z,100046.79
2019-01-26T03:51:22.673Z,100047.03
2019-01-26T03:52:23.541Z,100051.29
2019-01-26T03:53:24.435Z,100047.65
2019-01-26T03:54:25.301Z,100048.66
2019-01-26T03:55:26.199Z,100049.80
2019-01-26T03:56:27.054Z,100048.47
2019-01-26T03:57:27.906Z,100038.73
2019-01-26T03:58:28.814Z,100043.59
2019-01-26T03:59:29.659Z,100035.80
2019-01-26T04:00:30.515Z,100033.56
2019-01-26T04:01:31.539Z,100030.70
2019-01-26T04:02:32.405Z,100029.00
2019-01-26T04:03:33.301Z,100029.55
2019-01-26T04:04:34.185Z,100028.52
2019-01-26T04:05:35.052Z,100029.40
2019-01-26T04:06:35.910Z,100029.38
2019-01-26T04:07:36.773Z,100034.69
2019-01-26T04:08:37.655Z,100030.92
2019-01-26T04:09:38.525Z,100035.27
2019-01-26T04:10:39.385Z,100029.86
2019-01-26T04:11:40.237Z,100026.67
2019-01-26T04:12:41.083Z,100027.02
2019-01-26T04:13:41.979Z,100024.50
2019-01-26T04:14:42.833Z,100023.26
2019-01-26T04:15:43.789Z,100023.69
2019-01-26T04:16:44.657Z,100020.11
2019-01-26T04:17:45.510Z,100013.02
2019-01-26T04:18:46.413Z,100017.87
2019-01-26T04:19:47.269Z,100011.45
2019-01-26T04:20:48.135Z,100013.09
2019-01-26T04:21:49.143Z,100008.47
2019-01-26T04:22:49.998Z,100011.64
2019-01-26T04:23:50.884Z,100012.19
2019-01-26T04:24:51.761Z,100010.80
2019-01-26T04:25:52.620Z,100006.48
2019-01-26T04:26:53.467Z,100003.12
2019-01-26T04:27:54.319Z,100001.29
2019-01-26T04:28:55.216Z,99998.37
2019-01-26T04:29:56.071Z,100003.83
2019-01-26T04:30:56.952Z,100001.45
2019-01-26T04:31:57.805Z,100003.66
2019-01-26T04:32:58.663Z,100005.61
2019-01-26T04:34:00.155Z,100001.22
2019-01-26T04:35:01.021Z,100003.92
2019-01-26T04:36:01.985Z,99994.19
2019-01-26T04:37:02.863Z,99997.62
2019-01-26T04:38:03.727Z,99995.22
2019-01-26T04:39:06.087Z,100000.11
2019-01-26T04:40:12.433Z,100001.20
2019-01-26T04:41:13.293Z,100000.80
2019-01-26T04:42:14.159Z,99998.23
2019-01-26T04:43:15.019Z,99999.63
2019-01-26T04:44:15.878Z,99996.84
2019-01-26T04:45:18.929Z,99996.47
2019-01-26T04:46:19.781Z,99996.67
2019-01-26T04:47:20.653Z,99995.05
2019-01-26T04:48:21.507Z,99988.52
2019-01-26T04:49:22.370Z,99997.14
2019-01-26T04:50:23.247Z,99995.81
2019-01-26T04:51:24.110Z,99990.95
2019-01-26T04:52:24.999Z,99988.53
2019-01-26T04:53:25.855Z,99988.42
2019-01-26T04:54:26.717Z,99989.80
2019-01-26T04:55:27.585Z,99988.88
2019-01-26T04:56:28.437Z,99990.78
2019-01-26T04:57:29.333Z,99986.78
2019-01-26T04:58:30.189Z,99994.66
2019-01-26T04:59:31.158Z,99989.98
2019-01-26T05:00:32.051Z,99986.68
2019-01-26T05:01:32.900Z,99987.75
2019-01-26T05:02:33.795Z,99980.78
2019-01-26T05:03:34.662Z,99984.58
2019-01-26T05:04:35.522Z,99990.48
2019-01-26T05:05:36.378Z,99983.27
2019-01-26T05:06:37.222Z,99979.01
2019-01-26T05:07:38.123Z,99982.70
2019-01-26T05:08:38.980Z,99970.83
2019-01-26T05:09:39.833Z,99975.27
2019-01-26T05:10:40.694Z,99971.45
2019-01-26T05:11:41.544Z,99964.61
2019-01-26T05:12:42.436Z,99970.83
2019-01-26T05:13:43.291Z,99970.14
2019-01-26T05:14:44.148Z,99969.30
2019-01-26T05:15:45.003Z,99971.50
2019-01-26T05:16:45.862Z,99976.81
2019-01-26T05:17:46.755Z,99974.52
2019-01-26T05:18:47.610Z,99972.80
2019-01-26T05:19:48.477Z,99971.91
2019-01-26T05:20:49.333Z,99970.51
2019-01-26T05:21:50.189Z,99971.53
2019-01-26T05:22:51.102Z,99964.05
2019-01-26T05:23:51.953Z,99966.38
2019-01-26T05:24:52.815Z,99965.11
2019-01-26T05:25:53.676Z,99973.16
2019-01-26T05:26:54.527Z,99970.06
2019-01-26T05:27:55.419Z,99966.28
2019-01-26T05:28:56.284Z,99967.12
2019-01-26T05:29:57.147Z,99962.55
2019-01-26T05:30:57.996Z,99964.16
2019-01-26T05:31:58.853Z,99959.67
2019-01-26T05:32:59.754Z,99958.98
2019-01-26T05:34:00.637Z,99960.75
2019-01-26T05:35:01.651Z,99959.83
2019-01-26T05:36:02.561Z,99962.44
2019-01-26T05:37:06.181Z,99957.15
2019-01-26T05:38:07.087Z,99949.30
2019-01-26T05:39:09.393Z,99960.12
2019-01-26T05:40:15.495Z,99958.48
2019-01-26T05:41:16.376Z,99951.65
2019-01-26T05:42:17.215Z,99946.17
2019-01-26T05:43:18.113Z,99948.05
2019-01-26T05:44:18.963Z,99943.08
2019-01-26T05:45:20.517Z,99942.82
2019-01-26T05:46:21.379Z,99943.70
2019-01-26T05:47:22.240Z,99943.55
2019-01-26T05:48:23.159Z,99939.50
2019-01-26T05:49:24.019Z,99935.39
2019-01-26T05:50:24.975Z,99938.03
2019-01-26T05:51:25.840Z,99936.83
2019-01-26T05:52:26.699Z,99937.58
2019-01-26T05:53:27.615Z,99935.37
2019-01-26T05:54:28.469Z,99936.22
2019-01-26T05:55:29.327Z,99939.11
2019-01-26T05:56:30.211Z,99939.55
2019-01-26T05:57:31.067Z,99942.86
2019-01-26T05:58:32.128Z,99935.42
2019-01-26T05:59:33.002Z,99933.36
2019-01-26T06:00:33.856Z,99935.29
2019-01-26T06:01:34.713Z,99932.42
2019-01-26T06:02:35.604Z,99935.42
2019-01-26T06:03:36.462Z,99930.47
2019-01-26T06:04:37.340Z,99935.47
2019-01-26T06:05:38.193Z,99934.71
2019-01-26T06:06:39.040Z,99932.72
2019-01-26T06:07:39.951Z,99934.13
2019-01-26T06:08:40.819Z,99931.06
2019-01-26T06:09:41.687Z,99932.60
2019-01-26T06:10:42.539Z,99933.52
2019-01-26T06:11:43.394Z,99928.05
2019-01-26T06:12:44.286Z,99927.41
2019-01-26T06:13:45.146Z,99929.66
2019-01-26T06:14:46.004Z,99927.23
2019-01-26T06:15:46.861Z,99916.61
2019-01-26T06:16:47.714Z,99921.59
2019-01-26T06:17:54.763Z,99916.69
2019-01-26T06:18:51.375Z,99921.88
2019-01-26T06:19:52.239Z,99919.55
2019-01-26T06:20:53.099Z,99919.24
2019-01-26T06:21:55.089Z,99912.52
2019-01-26T06:22:55.937Z,99919.32
2019-01-26T06:23:56.777Z,99912.13
2019-01-26T06:24:57.633Z,99915.17
2019-01-26T06:25:58.489Z,99908.50
2019-01-26T06:26:59.385Z,99907.61
2019-01-26T06:28:00.239Z,99915.61
2019-01-26T06:29:01.106Z,99912.41
2019-01-26T06:30:05.467Z,99906.97
2019-01-26T06:31:06.325Z,99907.19
2019-01-26T06:32:07.212Z,99905.29
2019-01-26T06:33:08.089Z,99898.55
2019-01-26T06:34:08.981Z,99894.20
2019-01-26T06:35:09.846Z,99902.05
2019-01-26T06:36:10.783Z,99900.08
2019-01-26T06:37:16.636Z,99901.64
2019-01-26T06:38:23.944Z,99896.70
2019-01-26T06:39:24.796Z,99896.97
2019-01-26T06:40:25.654Z,99891.48
2019-01-26T06:41:26.619Z,99891.02
2019-01-26T06:42:27.491Z,99886.68
2019-01-26T06:43:33.193Z,99890.53
2019-01-26T06:44:34.069Z,99885.45
2019-01-26T06:45:36.076Z,99888.22
2019-01-26T06:46:36.927Z,99890.07
2019-01-26T06:47:37.783Z,99905.36
2019-01-26T06:48:38.641Z,99896.63
2019-01-26T06:49:44.323Z,99902.16
2019-01-26T06:50:45.213Z,99907.42
2019-01-26T06:51:54.863Z,99898.41
2019-01-26T06:52:55.713Z,99898.34
2019-01-26T06:53:56.559Z,99892.83
2019-01-26T06:55:00.223Z,99885.99
2019-01-26T06:56:01.115Z,99880.88
2019-01-26T06:57:01.986Z,99884.66
2019-01-26T06:58:02.837Z,99881.63
2019-01-26T06:59:03.695Z,99882.44
2019-01-26T07:00:11.117Z,99884.06
2019-01-26T07:01:12.013Z,99882.94
2019-01-26T07:02:12.865Z,99887.12
2019-01-26T07:03:13.791Z,99881.32
2019-01-26T07:04:34.583Z,99882.91
2019-01-26T07:05:49.355Z,99885.42
2019-01-26T07:06:52.163Z,99880.09
2019-01-26T07:07:53.049Z,99888.08
2019-01-26T07:08:53.909Z,99886.33
2019-01-26T07:09:54.759Z,99890.52
2019-01-26T07:10:55.611Z,99887.23
2019-01-26T07:11:56.506Z,99893.18
2019-01-26T07:12:57.374Z,99891.38
2019-01-26T07:13:58.227Z,99884.38
2019-01-26T07:14:59.091Z,99889.78
2019-01-26T07:16:00.381Z,99891.61
2019-01-26T07:17:03.075Z,99879.58
2019-01-26T07:18:09.326Z,99888.34
2019-01-26T07:19:06.707Z,99885.11
2019-01-26T07:20:13.331Z,99884.94
2019-01-26T07:21:14.186Z,99894.34
2019-01-26T07:22:15.079Z,99888.44
2019-01-26T07:23:15.936Z,99886.27
2019-01-26T07:24:16.801Z,99887.71
2019-01-26T07:25:18.057Z,99890.11
2019-01-26T07:26:18.917Z,99882.62
2019-01-26T07:27:19.793Z,99893.17
2019-01-26T07:28:23.423Z,99887.39
2019-01-26T07:29:29.421Z,99889.80
2019-01-26T07:30:30.282Z,99884.42
2019-01-26T07:31:31.249Z,99884.56
2019-01-26T07:32:32.105Z,99871.88
2019-01-26T07:33:32.975Z,99878.16
2019-01-26T07:34:35.347Z,99872.95
2019-01-26T07:35:36.209Z,99877.44
2019-01-26T07:36:37.063Z,99876.05
2019-01-26T07:37:37.916Z,99874.33
2019-01-26T07:38:38.781Z,99871.36
2019-01-26T07:39:39.674Z,99868.78
2019-01-26T07:40:40.535Z,99866.25
2019-01-26T07:41:41.500Z,99864.22
2019-01-26T07:42:42.576Z,99862.41
2019-01-26T07:43:43.535Z,99858.83
2019-01-26T07:44:46.799Z,99865.80
2019-01-26T07:45:47.660Z,99862.47
2019-01-26T07:46:48.539Z,99861.18
2019-01-26T07:47:49.394Z,99865.31
2019-01-26T07:48:50.245Z,99851.73
2019-01-26T07:49:51.149Z,99854.89
2019-01-26T07:50:52.015Z,99853.27
2019-01-26T07:51:52.862Z,99852.23
2019-01-26T07:52:53.952Z,99852.45
2019-01-26T07:53:54.812Z,99863.29
2019-01-26T07:54:55.710Z,99851.17
2019-01-26T07:55:56.672Z,99858.16
2019-01-26T07:56:57.634Z,99855.70
2019-01-26T07:58:01.570Z,99851.70
2019-01-26T07:59:02.515Z,99846.88
2019-01-26T08:00:10.183Z,99847.70
2019-01-26T08:01:11.034Z,99850.36
2019-01-26T08:02:11.887Z,99846.44
2019-01-26T08:03:12.747Z,99845.10
2019-01-26T08:04:13.613Z,99848.45
2019-01-26T08:05:14.546Z,99845.06
2019-01-26T08:06:15.404Z,99844.91
2019-01-26T08:07:16.270Z,99844.88
2019-01-26T08:08:17.122Z,99845.42
2019-01-26T08:09:17.983Z,99844.14
2019-01-26T08:10:21.693Z,99838.01
2019-01-26T08:11:22.546Z,99836.68
2019-01-26T08:12:23.421Z,99831.91
2019-01-26T08:13:24.271Z,99837.45
2019-01-26T08:14:25.135Z,99838.25
2019-01-26T08:15:31.152Z,99830.72
2019-01-26T08:16:35.098Z,99833.16
2019-01-26T08:17:35.951Z,99832.55
2019-01-26T08:18:36.810Z,99830.11
2019-01-26T08:19:37.673Z,99826.81
2019-01-26T08:20:40.508Z,99817.87
2019-01-26T08:21:41.378Z,99821.67
2019-01-26T08:22:42.232Z,99817.22
2019-01-26T08:23:45.022Z,99822.58
2019-01-26T08:24:45.882Z,99818.73
2019-01-26T08:25:46.868Z,99821.13
2019-01-26T08:26:47.682Z,99814.20
2019-01-26T08:27:48.643Z,99817.24
2019-01-26T08:28:49.504Z,99816.98
2019-01-26T08:29:50.364Z,99819.02
2019-01-26T08:30:51.253Z,99817.26
2019-01-26T08:31:52.115Z,99808.31
2019-01-26T08:32:52.977Z,99817.83
2019-01-26T08:33:53.843Z,99811.88
2019-01-26T08:34:54.823Z,99806.05
2019-01-26T08:35:55.826Z,99813.14
2019-01-26T08:36:56.683Z,99807.87
2019-01-26T08:37:57.544Z,99814.88
2019-01-26T08:38:58.394Z,99813.23
2019-01-26T08:39:59.250Z,99808.09
2019-01-26T08:41:00.144Z,99809.41
2019-01-26T08:42:01.028Z,99806.02
2019-01-26T08:43:01.980Z,99804.58
2019-01-26T08:44:02.820Z,99806.08
2019-01-26T08:45:06.771Z,99803.64
2019-01-26T08:46:07.637Z,99803.25
2019-01-26T08:47:08.492Z,99800.79
2019-01-26T08:48:09.349Z,99798.05
2019-01-26T08:49:10.249Z,99801.22
2019-01-26T08:50:14.324Z,99795.09
2019-01-26T08:51:15.184Z,99796.69
2019-01-26T08:52:16.044Z,99797.33
2019-01-26T08:53:16.902Z,99790.13
2019-01-26T08:54:21.535Z,99789.81
2019-01-26T08:55:22.596Z,99793.52
2019-01-26T08:56:23.470Z,99796.23
2019-01-26T08:57:28.200Z,99798.38
2019-01-26T08:58:29.068Z,99798.43
2019-01-26T08:59:29.968Z,99795.71
2019-01-26T09:00:30.822Z,99791.70
2019-01-26T09:01:31.808Z,99789.84
2019-01-26T09:02:37.620Z,99791.20
2019-01-26T09:03:55.473Z,99784.58
2019-01-26T09:04:56.969Z,99784.84
2019-01-26T09:05:59.741Z,99787.08
2019-01-26T09:07:00.707Z,99788.67
2019-01-26T09:08:04.083Z,99788.66
2019-01-26T09:09:07.346Z,99780.41
2019-01-26T09:10:08.248Z,99784.45
2019-01-26T09:11:09.153Z,99786.95
2019-01-26T09:12:10.007Z,99783.34
2019-01-26T09:13:10.864Z,99778.26
2019-01-26T09:14:11.736Z,99783.34
2019-01-26T09:15:12.597Z,99785.08
2019-01-26T09:16:13.502Z,99780.94
2019-01-26T09:17:14.354Z,99779.86
2019-01-26T09:18:15.274Z,99780.66
2019-01-26T09:19:17.690Z,99779.81
2019-01-26T09:20:18.720Z,99783.16
2019-01-26T09:21:19.660Z,99782.25
2019-01-26T09:22:20.522Z,99779.11
2019-01-26T09:23:21.422Z,99780.13
2019-01-26T09:24:22.283Z,99777.62
2019-01-26T09:25:23.174Z,99783.33
2019-01-26T09:26:24.078Z,99776.69
2019-01-26T09:27:24.948Z,99780.39
2019-01-26T09:28:25.804Z,99776.09
2019-01-26T09:29:26.767Z,99778.45
2019-01-26T09:30:27.735Z,99774.72
2019-01-26T09:31:29.019Z,99772.16
2019-01-26T09:32:29.880Z,99766.66
2019-01-26T09:33:30.895Z,99757.56
2019-01-26T09:34:31.942Z,99762.25
2019-01-26T09:35:32.861Z,99758.62
2019-01-26T09:36:33.717Z,99755.19
2019-01-26T09:37:37.176Z,99761.53
2019-01-26T09:38:38.026Z,99756.58
2019-01-26T09:39:38.892Z,99752.08
2019-01-26T09:40:42.716Z,99758.93
2019-01-26T09:41:43.574Z,99755.75
2019-01-26T09:42:46.371Z,99751.08
2019-01-26T09:43:54.732Z,99753.12
2019-01-26T09:44:59.395Z,99750.81
2019-01-26T09:46:00.290Z,99750.29
2019-01-26T09:47:01.360Z,99749.41
2019-01-26T09:48:02.324Z,99749.41
2019-01-26T09:49:05.092Z,99753.28
2019-01-26T09:50:08.552Z,99752.55
2019-01-26T09:51:09.444Z,99746.30
2019-01-26T09:52:10.330Z,99748.02
2019-01-26T09:53:11.193Z,99745.91
2019-01-26T09:54:12.058Z,99742.20
2019-01-26T09:55:17.231Z,99744.55
2019-01-26T09:56:18.190Z,99739.90
2019-01-26T09:57:20.964Z,99736.00
2019-01-26T09:58:21.830Z,99728.06
2019-01-26T09:59:22.676Z,99725.88
2019-01-26T10:00:24.940Z,99730.39
2019-01-26T10:01:25.828Z,99726.61
2019-01-26T10:02:26.686Z,99726.27
2019-01-26T10:03:27.548Z,99731.11
2019-01-26T10:04:28.414Z,99723.55
2019-01-26T10:05:29.268Z,99727.90
2019-01-26T10:06:30.157Z,99721.50
2019-01-26T10:07:31.022Z,99720.43
2019-01-26T10:08:31.990Z,99718.00
2019-01-26T10:09:32.851Z,99717.91
2019-01-26T10:10:33.700Z,99719.04
2019-01-26T10:11:34.589Z,99718.59
2019-01-26T10:12:35.458Z,99711.67
2019-01-26T10:13:36.317Z,99711.73
2019-01-26T10:14:37.300Z,99713.55
2019-01-26T10:15:38.143Z,99706.88
2019-01-26T10:16:39.034Z,99705.59
2019-01-26T10:17:45.798Z,99709.28
2019-01-26T10:18:42.748Z,99702.84
2019-01-26T10:19:43.620Z,99699.75
2019-01-26T10:20:44.480Z,99695.56
2019-01-26T10:21:45.383Z,99695.73
2019-01-26T10:22:46.232Z,99699.03
2019-01-26T10:23:47.087Z,99690.67
2019-01-26T10:24:47.938Z,99695.69
2019-01-26T10:25:49.065Z,99698.36
2019-01-26T10:26:51.944Z,99690.73
2019-01-26T10:27:52.815Z,99690.16
2019-01-26T10:28:53.666Z,99687.73
2019-01-26T10:29:54.646Z,99697.83
2019-01-26T10:30:57.422Z,99686.89
2019-01-26T10:31:58.306Z,99695.74
2019-01-26T10:32:59.178Z,99688.43
2019-01-26T10:34:00.043Z,99691.95
2019-01-26T10:35:00.921Z,99689.23
2019-01-26T10:36:03.828Z,99685.52
2019-01-26T10:37:05.301Z,99689.09
2019-01-26T10:38:06.149Z,99681.09
2019-01-26T10:39:08.506Z,99681.87
2019-01-26T10:40:11.868Z,99678.41
2019-01-26T10:41:29.622Z,99682.86
2019-01-26T10:42:30.486Z,99676.11
2019-01-26T10:43:39.357Z,99673.41
2019-01-26T10:44:40.304Z,99678.64
2019-01-26T10:45:41.276Z,99676.52
2019-01-26T10:46:42.165Z,99674.48
2019-01-26T10:47:43.034Z,99679.47
2019-01-26T10:48:43.918Z,99676.52
2019-01-26T10:49:44.779Z,99677.39
2019-01-26T10:50:45.635Z,99673.78
2019-01-26T10:51:46.862Z,99668.70
2019-01-26T10:52:47.849Z,99664.00
2019-01-26T10:53:48.778Z,99669.28
2019-01-26T10:54:49.638Z,99663.94
2019-01-26T10:55:50.494Z,99661.53
2019-01-26T10:56:51.370Z,99661.09
2019-01-26T10:57:52.230Z,99660.32
2019-01-26T10:58:53.144Z,99660.75
2019-01-26T10:59:54.036Z,99657.88
2019-01-26T11:00:54.887Z,99657.66
2019-01-26T11:01:55.740Z,99659.05
2019-01-26T11:02:56.740Z,99654.86
2019-01-26T11:03:57.627Z,99652.62
2019-01-26T11:04:58.501Z,99648.16
2019-01-26T11:05:59.366Z,99652.11
2019-01-26T11:07:00.234Z,99651.58
2019-01-26T11:08:01.137Z,99653.30
2019-01-26T11:09:04.106Z,99646.17
2019-01-26T11:10:11.090Z,99644.71
2019-01-26T11:11:11.960Z,99643.25
2019-01-26T11:12:12.813Z,99640.05
2019-01-26T11:13:13.705Z,99642.09
2019-01-26T11:14:14.562Z,99638.47
2019-01-26T11:15:15.453Z,99643.82
2019-01-26T11:16:16.348Z,99635.22
2019-01-26T11:17:17.210Z,99634.13
2019-01-26T11:18:18.066Z,99636.48
2019-01-26T11:19:18.932Z,99629.70
2019-01-26T11:20:19.801Z,99625.83
2019-01-26T11:21:20.986Z,99632.86
2019-01-26T11:22:21.840Z,99622.49
2019-01-26T11:23:22.700Z,99626.44
2019-01-26T11:24:23.602Z,99627.48
2019-01-26T11:25:24.549Z,99621.98
2019-01-26T11:26:25.452Z,99620.16
2019-01-26T11:27:26.308Z,99613.26
2019-01-26T11:28:27.245Z,99621.83
2019-01-26T11:29:28.122Z,99625.14
2019-01-26T11:30:30.876Z,99618.69
2019-01-26T11:31:32.486Z,99616.14
2019-01-26T11:32:33.452Z,99620.27
2019-01-26T11:33:34.316Z,99617.25
2019-01-26T11:34:35.312Z,99613.75
2019-01-26T11:35:36.314Z,99612.33
2019-01-26T11:36:37.210Z,99613.11
2019-01-26T11:37:38.064Z,99618.47
2019-01-26T11:38:38.930Z,99615.39
2019-01-26T11:39:41.695Z,99615.88
2019-01-26T11:40:42.553Z,99612.58
2019-01-26T11:41:43.574Z,99615.19
2019-01-26T11:42:44.485Z,99610.98
2019-01-26T11:43:45.352Z,99609.77
2019-01-26T11:44:48.109Z,99607.19
2019-01-26T11:45:59.837Z,99600.24
2019-01-26T11:47:00.740Z,99605.94
2019-01-26T11:48:03.598Z,99600.66
2019-01-26T11:49:04.556Z,99597.15
2019-01-26T11:50:06.622Z,99601.27
2019-01-26T11:51:15.416Z,99595.89
2019-01-26T11:52:16.472Z,99594.66